createdAt,value
2022-12-12T00:01:48.941Z,64.30
2022-12-12T00:04:15.859Z,64.20
2022-12-12T00:06:42.714Z,64.20
2022-12-12T00:09:09.643Z,64.10
2022-12-12T00:11:37.016Z,64.10
2022-12-12T00:14:04.564Z,64.10
2022-12-12T00:16:31.663Z,64.20
2022-12-12T00:18:58.473Z,64.80
2022-12-12T00:21:28.113Z,64.20
2022-12-12T00:23:55.416Z,64.20
2022-12-12T00:26:28.505Z,64.30
2022-12-12T00:28:56.269Z,64.20
2022-12-12T00:31:23.087Z,64.60
2022-12-12T00:33:51.148Z,64.20
2022-12-12T00:36:20.333Z,64.10
2022-12-12T00:38:47.838Z,64.20
2022-12-12T00:41:15.449Z,64.20
2022-12-12T00:43:42.702Z,64.00
2022-12-12T00:46:16.207Z,64.00
2022-12-12T00:48:43.863Z,64.00
2022-12-12T00:51:15.143Z,63.90
2022-12-12T00:53:42.008Z,64.00
2022-12-12T00:56:09.009Z,64.00
2022-12-12T00:58:36.200Z,64.10
2022-12-12T01:01:15.471Z,64.20
2022-12-12T01:03:43.149Z,64.30
2022-12-12T01:06:10.709Z,64.20
2022-12-12T01:08:38.433Z,64.10
2022-12-12T01:11:06.665Z,64.10
2022-12-12T01:13:34.366Z,63.90
2022-12-12T01:16:01.508Z,64.10
2022-12-12T01:18:29.222Z,64.10
2022-12-12T01:20:56.166Z,64.00
2022-12-12T01:23:23.118Z,64.20
2022-12-12T01:25:50.112Z,64.20
2022-12-12T01:28:17.718Z,64.20
2022-12-12T01:30:44.615Z,64.00
2022-12-12T01:33:11.352Z,63.90
2022-12-12T01:35:38.146Z,63.90
2022-12-12T01:38:04.988Z,64.00
2022-12-12T01:40:31.844Z,64.20
2022-12-12T01:42:59.901Z,64.20
2022-12-12T01:45:57.568Z,64.10
2022-12-12T01:48:28.608Z,63.90
2022-12-12T01:50:59.089Z,64.00
2022-12-12T01:53:29.824Z,64.10
2022-12-12T01:55:57.536Z,64.10
2022-12-12T01:58:25.298Z,63.90
2022-12-12T02:00:52.199Z,63.90
2022-12-12T02:03:19.240Z,63.90
2022-12-12T02:05:56.365Z,63.90
2022-12-12T02:08:23.875Z,63.90
2022-12-12T02:10:51.156Z,63.80
2022-12-12T02:13:24.737Z,63.90
2022-12-12T02:16:00.491Z,63.90
2022-12-12T02:18:51.909Z,64.00
2022-12-12T02:21:33.853Z,64.00
2022-12-12T02:24:26.192Z,64.00
2022-12-12T02:27:11.981Z,64.10
2022-12-12T02:29:50.702Z,64.00
2022-12-12T02:32:26.405Z,64.00
2022-12-12T02:35:08.518Z,64.00
2022-12-12T02:37:48.670Z,64.00
2022-12-12T02:40:28.559Z,64.10
2022-12-12T02:43:17.725Z,64.00
2022-12-12T02:45:50.403Z,64.10
2022-12-12T02:48:43.194Z,64.00
2022-12-12T02:51:12.786Z,63.90
2022-12-12T02:53:39.860Z,64.00
2022-12-12T02:56:29.384Z,64.10
2022-12-12T02:58:56.432Z,64.00
2022-12-12T03:01:40.400Z,64.10
2022-12-12T03:04:37.582Z,64.00
2022-12-12T03:07:48.402Z,64.10
2022-12-12T03:10:30.713Z,64.00
2022-12-12T03:13:06.530Z,64.10
2022-12-12T03:16:03.657Z,64.10
2022-12-12T03:18:57.105Z,64.10
2022-12-12T03:21:30.991Z,64.10
2022-12-12T03:24:04.798Z,64.30
2022-12-12T03:26:46.641Z,64.20
2022-12-12T03:29:19.638Z,64.20
2022-12-12T03:31:51.163Z,64.20
2022-12-12T03:34:27.547Z,64.20
2022-12-12T03:37:13.450Z,64.10
2022-12-12T03:39:49.649Z,64.00
2022-12-12T03:42:24.269Z,64.10
2022-12-12T03:45:03.306Z,64.00
2022-12-12T03:47:54.475Z,64.00
2022-12-12T03:50:25.251Z,64.00
2022-12-12T03:53:11.747Z,64.00
2022-12-12T03:55:42.148Z,63.90
2022-12-12T03:58:16.807Z,63.90
2022-12-12T04:00:47.693Z,64.00
2022-12-12T04:03:43.517Z,64.00
2022-12-12T04:06:28.596Z,63.90
2022-12-12T04:09:20.570Z,63.90
2022-12-12T04:12:36.308Z,63.90
2022-12-12T04:15:19.074Z,63.90
2022-12-12T04:18:16.933Z,63.90
2022-12-12T04:21:16.409Z,64.00
2022-12-12T04:24:02.608Z,64.00
2022-12-12T04:26:41.023Z,64.00
2022-12-12T04:29:11.813Z,64.00
2022-12-12T04:32:05.694Z,63.90
2022-12-12T04:34:44.147Z,63.90
2022-12-12T04:37:15.487Z,63.90
2022-12-12T04:39:44.839Z,63.90
2022-12-12T04:42:15.188Z,63.90
2022-12-12T04:44:44.875Z,63.90
2022-12-12T04:47:13.709Z,63.80
2022-12-12T04:49:43.681Z,63.80
2022-12-12T04:52:13.648Z,63.70
2022-12-12T04:54:43.114Z,63.70
2022-12-12T04:57:14.551Z,63.70
2022-12-12T04:59:41.650Z,63.70
2022-12-12T05:02:23.631Z,63.70
2022-12-12T05:05:05.934Z,63.70
2022-12-12T05:07:46.920Z,63.60
2022-12-12T05:10:16.129Z,63.60
2022-12-12T05:12:49.214Z,63.60
2022-12-12T05:15:17.912Z,63.60
2022-12-12T05:18:07.837Z,63.60
2022-12-12T05:20:34.657Z,63.60
2022-12-12T05:23:01.461Z,63.60
2022-12-12T05:25:28.262Z,63.60
2022-12-12T05:27:55.155Z,64.10
2022-12-12T05:30:22.920Z,63.60
2022-12-12T05:32:50.025Z,63.60
2022-12-12T05:35:17.630Z,63.60
2022-12-12T05:37:51.235Z,63.50
2022-12-12T05:40:19.812Z,63.50
2022-12-12T05:42:46.670Z,63.50
2022-12-12T05:45:13.820Z,63.60
2022-12-12T05:47:40.906Z,63.50
2022-12-12T05:50:07.952Z,63.50
2022-12-12T05:52:34.902Z,63.50
2022-12-12T05:55:01.750Z,63.40
2022-12-12T05:57:28.430Z,63.30
2022-12-12T05:59:55.326Z,63.40
2022-12-12T06:02:22.167Z,63.40
2022-12-12T06:04:48.860Z,63.50
2022-12-12T06:07:15.649Z,63.60
2022-12-12T06:09:42.541Z,63.70
2022-12-12T06:12:09.385Z,63.60
2022-12-12T06:14:36.219Z,63.60
2022-12-12T06:17:03.396Z,63.50
2022-12-12T06:19:30.174Z,63.50
2022-12-12T06:21:56.962Z,63.50
2022-12-12T06:24:23.857Z,63.50
2022-12-12T06:26:51.055Z,63.50
2022-12-12T06:29:17.898Z,63.40
2022-12-12T06:31:44.664Z,63.40
2022-12-12T06:34:11.481Z,63.40
2022-12-12T06:36:38.375Z,63.50
2022-12-12T06:39:05.269Z,63.50
2022-12-12T06:41:33.392Z,63.50
2022-12-12T06:44:00.238Z,63.60
2022-12-12T06:46:28.753Z,63.60
2022-12-12T06:48:56.797Z,63.50
2022-12-12T06:51:26.911Z,63.60
2022-12-12T06:53:53.959Z,63.60
2022-12-12T06:56:23.410Z,63.50
2022-12-12T06:58:50.918Z,63.50
2022-12-12T07:01:19.616Z,63.50
2022-12-12T07:03:47.829Z,63.60
2022-12-12T07:06:14.883Z,63.50
2022-12-12T07:08:41.788Z,63.60
2022-12-12T07:11:14.107Z,63.60
2022-12-12T07:13:41.357Z,63.60
2022-12-12T07:16:08.945Z,63.50
2022-12-12T07:18:35.841Z,63.60
2022-12-12T07:21:07.354Z,63.60
2022-12-12T07:23:34.655Z,63.60
2022-12-12T07:26:06.105Z,63.50
2022-12-12T07:28:32.993Z,63.50
2022-12-12T07:31:01.368Z,63.50
2022-12-12T07:33:37.011Z,63.60
2022-12-12T07:36:09.000Z,63.70
2022-12-12T07:38:36.655Z,63.70
2022-12-12T07:41:09.345Z,63.60
2022-12-12T07:43:42.874Z,63.60
2022-12-12T07:46:17.461Z,63.60
2022-12-12T07:48:44.703Z,63.50
2022-12-12T07:51:12.172Z,63.70
2022-12-12T07:53:39.002Z,63.90
2022-12-12T07:56:07.918Z,63.70
2022-12-12T07:58:35.617Z,64.00
2022-12-12T08:01:14.147Z,64.00
2022-12-12T08:03:42.312Z,63.80
2022-12-12T08:06:09.307Z,63.90
2022-12-12T08:08:36.245Z,63.80
2022-12-12T08:11:08.156Z,63.80
2022-12-12T08:13:36.590Z,63.80
2022-12-12T08:16:05.621Z,63.80
2022-12-12T08:18:32.818Z,63.80
2022-12-12T08:20:59.624Z,63.70
2022-12-12T08:23:26.468Z,63.80
2022-12-12T08:25:53.311Z,63.80
2022-12-12T08:28:20.103Z,63.80
2022-12-12T08:30:50.997Z,63.80
2022-12-12T08:33:18.372Z,63.80
2022-12-12T08:35:45.342Z,63.80
2022-12-12T08:38:12.187Z,63.90
2022-12-12T08:40:39.281Z,64.00
2022-12-12T08:43:06.138Z,64.00
2022-12-12T08:45:33.020Z,64.00
2022-12-12T08:47:59.758Z,64.00
2022-12-12T08:50:26.723Z,64.00
2022-12-12T08:52:54.378Z,64.00
2022-12-12T08:55:21.336Z,64.10
2022-12-12T08:57:48.052Z,64.10
2022-12-12T09:00:15.409Z,64.70
2022-12-12T09:02:42.943Z,64.10
2022-12-12T09:05:10.736Z,64.10
2022-12-12T09:07:37.779Z,64.20
2022-12-12T09:10:05.031Z,64.20
2022-12-12T09:12:34.592Z,64.20
2022-12-12T09:15:05.740Z,64.20
2022-12-12T09:17:32.430Z,64.30
2022-12-12T09:19:59.243Z,64.30
2022-12-12T09:22:26.044Z,64.30
2022-12-12T09:24:52.845Z,64.20
2022-12-12T09:27:19.585Z,64.40
2022-12-12T09:29:46.436Z,64.60
2022-12-12T09:32:13.075Z,64.40
2022-12-12T09:34:39.848Z,64.60
2022-12-12T09:37:06.797Z,64.80
2022-12-12T09:39:33.499Z,65.00
2022-12-12T09:42:29.367Z,64.90
2022-12-12T09:45:04.298Z,64.80
2022-12-12T09:47:30.989Z,65.10
2022-12-12T09:50:04.076Z,65.30
2022-12-12T09:52:34.817Z,65.20
2022-12-12T09:55:20.993Z,65.40
2022-12-12T09:58:03.059Z,65.20
2022-12-12T10:00:34.587Z,65.40
2022-12-12T10:03:01.530Z,65.70
2022-12-12T10:05:34.761Z,65.60
2022-12-12T10:08:27.869Z,66.00
2022-12-12T10:10:59.359Z,65.40
2022-12-12T10:13:27.708Z,65.30
2022-12-12T10:15:58.309Z,65.40
2022-12-12T10:18:33.496Z,65.30
2022-12-12T10:21:04.753Z,65.40
2022-12-12T10:23:56.951Z,65.30
2022-12-12T10:26:30.951Z,65.30
2022-12-12T10:29:11.158Z,65.20
2022-12-12T10:31:54.272Z,65.40
2022-12-12T10:34:30.189Z,65.30
2022-12-12T10:37:15.981Z,65.30
2022-12-12T10:39:45.786Z,65.30
2022-12-12T10:42:43.143Z,65.40
2022-12-12T10:45:28.686Z,65.30
2022-12-12T10:47:55.620Z,65.30
2022-12-12T10:50:28.748Z,65.00
2022-12-12T10:52:55.594Z,65.20
2022-12-12T10:55:36.781Z,65.20
2022-12-12T10:58:05.365Z,65.20
2022-12-12T11:00:38.251Z,64.90
2022-12-12T11:03:39.807Z,65.10
2022-12-12T11:06:12.136Z,65.00
2022-12-12T11:08:39.187Z,65.10
2022-12-12T11:11:22.454Z,65.10
2022-12-12T11:13:51.839Z,64.90
2022-12-12T11:16:25.547Z,64.90
2022-12-12T11:19:06.431Z,64.80
2022-12-12T11:21:35.946Z,64.90
2022-12-12T11:24:12.356Z,64.80
2022-12-12T11:26:46.943Z,64.80
2022-12-12T11:29:45.618Z,64.70
2022-12-12T11:32:19.816Z,64.70
2022-12-12T11:34:52.388Z,64.70
2022-12-12T11:37:23.455Z,64.40
2022-12-12T11:39:52.550Z,64.60
2022-12-12T11:42:27.765Z,64.70
2022-12-12T11:45:17.981Z,64.80
2022-12-12T11:47:47.129Z,65.10
2022-12-12T11:50:23.186Z,65.30
2022-12-12T11:52:53.226Z,65.20
2022-12-12T11:55:33.306Z,65.30
2022-12-12T11:58:26.580Z,65.40
2022-12-12T12:01:07.043Z,65.60
2022-12-12T12:03:42.775Z,65.50
2022-12-12T12:06:18.433Z,65.20
2022-12-12T12:08:51.267Z,65.20
2022-12-12T12:11:27.118Z,65.20
2022-12-12T12:14:05.625Z,65.70
2022-12-12T12:16:59.777Z,65.70
2022-12-12T12:19:38.389Z,65.80
2022-12-12T12:22:28.989Z,65.00
2022-12-12T12:25:04.739Z,64.70
2022-12-12T12:28:07.420Z,64.80
2022-12-12T12:30:40.226Z,64.90
2022-12-12T12:33:39.290Z,64.80
2022-12-12T12:36:22.547Z,64.90
2022-12-12T12:39:33.607Z,64.80
2022-12-12T12:42:32.553Z,64.30
2022-12-12T12:45:19.621Z,63.50
2022-12-12T12:48:08.795Z,63.60
2022-12-12T12:50:42.183Z,63.80
2022-12-12T12:53:24.078Z,63.70
2022-12-12T12:55:55.017Z,63.80
2022-12-12T12:58:32.260Z,63.00
2022-12-12T13:01:21.251Z,62.50
2022-12-12T13:04:08.025Z,62.80
2022-12-12T13:06:56.431Z,62.90
2022-12-12T13:09:35.400Z,63.30
2022-12-12T13:12:19.549Z,64.00
2022-12-12T13:14:54.331Z,63.80
2022-12-12T13:17:48.054Z,62.40
2022-12-12T13:20:19.532Z,62.70
2022-12-12T13:23:12.260Z,62.70
2022-12-12T13:25:56.862Z,62.70
2022-12-12T13:28:28.412Z,63.10
2022-12-12T13:31:00.946Z,63.10
2022-12-12T13:33:39.820Z,63.00
2022-12-12T13:36:35.130Z,62.90
2022-12-12T13:39:04.120Z,62.80
2022-12-12T13:42:06.885Z,62.40
2022-12-12T13:44:42.300Z,61.90
2022-12-12T13:47:17.977Z,60.60
2022-12-12T13:50:08.451Z,59.50
2022-12-12T13:52:45.068Z,58.80
2022-12-12T13:55:13.012Z,58.40
2022-12-12T13:58:05.641Z,58.90
2022-12-12T14:00:36.625Z,59.10
2022-12-12T14:03:21.468Z,58.60
2022-12-12T14:05:49.001Z,58.50
2022-12-12T14:08:15.769Z,58.30
2022-12-12T14:10:45.561Z,58.10
2022-12-12T14:13:24.325Z,58.40
2022-12-12T14:16:14.145Z,58.50
2022-12-12T14:18:55.086Z,58.50
2022-12-12T14:21:41.377Z,58.60
2022-12-12T14:24:33.010Z,58.80
2022-12-12T14:27:01.215Z,58.60
2022-12-12T14:29:30.204Z,58.50
2022-12-12T14:31:56.981Z,58.40
2022-12-12T14:34:47.406Z,58.10
2022-12-12T14:37:24.454Z,58.40
2022-12-12T14:39:53.891Z,58.70
2022-12-12T14:43:18.824Z,58.80
2022-12-12T14:45:36.168Z,59.10
2022-12-12T14:48:17.096Z,59.20
2022-12-12T14:50:47.723Z,59.20
2022-12-12T14:53:17.586Z,58.90
2022-12-12T14:55:54.309Z,58.60
2022-12-12T14:58:23.627Z,58.30
2022-12-12T15:00:54.139Z,58.30
2022-12-12T15:03:29.451Z,58.10
2022-12-12T15:06:24.005Z,57.90
2022-12-12T15:08:52.445Z,57.70
2022-12-12T15:11:25.748Z,57.80
2022-12-12T15:13:58.532Z,57.70
2022-12-12T15:16:48.377Z,57.60
2022-12-12T15:19:23.652Z,57.60
2022-12-12T15:21:50.599Z,57.60
2022-12-12T15:24:23.379Z,57.60
2022-12-12T15:26:53.208Z,57.70
2022-12-12T15:29:24.232Z,57.70
2022-12-12T15:32:07.545Z,57.60
2022-12-12T15:34:39.514Z,57.80
2022-12-12T15:37:23.203Z,57.80
2022-12-12T15:40:17.639Z,57.80
2022-12-12T15:42:49.550Z,57.90
2022-12-12T15:45:24.342Z,58.00
2022-12-12T15:47:54.874Z,57.80
2022-12-12T15:50:50.220Z,57.80
2022-12-12T15:53:26.916Z,57.80
2022-12-12T15:56:04.555Z,57.70
2022-12-12T15:58:52.654Z,57.70
2022-12-12T16:01:25.367Z,57.80
2022-12-12T16:04:25.139Z,57.70
2022-12-12T16:06:52.100Z,57.80
2022-12-12T16:09:26.566Z,58.00
2022-12-12T16:11:58.060Z,58.00
2022-12-12T16:14:41.385Z,58.00
2022-12-12T16:17:24.927Z,58.10
2022-12-12T16:20:04.690Z,58.10
2022-12-12T16:22:36.220Z,58.00
2022-12-12T16:25:21.470Z,58.10
2022-12-12T16:28:09.838Z,58.00
2022-12-12T16:30:41.450Z,58.10
2022-12-12T16:33:12.181Z,58.10
2022-12-12T16:35:39.127Z,58.10
2022-12-12T16:38:16.440Z,58.20
2022-12-12T16:40:44.903Z,58.10
2022-12-12T16:43:14.249Z,58.00
2022-12-12T16:45:41.897Z,58.00
2022-12-12T16:48:24.892Z,58.10
2022-12-12T16:50:56.690Z,58.30
2022-12-12T16:53:23.749Z,58.50
2022-12-12T16:55:51.864Z,58.50
2022-12-12T16:58:21.433Z,58.50
2022-12-12T17:00:49.360Z,58.50
2022-12-12T17:03:17.100Z,58.50
2022-12-12T17:05:46.787Z,58.60
2022-12-12T17:08:15.978Z,58.70
2022-12-12T17:10:43.924Z,58.70
2022-12-12T17:13:16.910Z,58.60
2022-12-12T17:15:44.131Z,58.50
2022-12-12T17:18:11.466Z,58.50
2022-12-12T17:20:38.680Z,58.40
2022-12-12T17:25:51.359Z,58.80
2022-12-12T17:28:20.664Z,58.90
2022-12-12T17:30:49.942Z,58.80
2022-12-12T17:33:18.395Z,58.80
2022-12-12T17:35:45.496Z,58.70
2022-12-12T17:38:16.181Z,58.70
2022-12-12T17:40:44.080Z,58.70
2022-12-12T17:43:10.770Z,58.80
2022-12-12T17:45:37.828Z,59.00
2022-12-12T17:48:05.069Z,58.90
2022-12-12T17:50:33.257Z,58.80
2022-12-12T17:53:02.659Z,59.00
2022-12-12T17:55:54.971Z,59.00
2022-12-12T17:58:16.050Z,59.10
2022-12-12T18:00:42.783Z,59.10
2022-12-12T18:03:09.486Z,59.00
2022-12-12T18:05:36.212Z,59.10
2022-12-12T18:08:02.997Z,59.20
2022-12-12T18:10:30.256Z,59.20
2022-12-12T18:12:57.091Z,59.20
2022-12-12T18:15:23.951Z,59.10
2022-12-12T18:17:50.637Z,59.10
2022-12-12T18:20:17.718Z,59.00
2022-12-12T18:22:44.471Z,59.10
2022-12-12T18:25:11.543Z,59.10
2022-12-12T18:27:40.155Z,59.20
2022-12-12T18:30:07.356Z,59.20
2022-12-12T18:32:34.095Z,59.20
2022-12-12T18:35:00.799Z,59.40
2022-12-12T18:37:27.527Z,59.40
2022-12-12T18:39:54.581Z,59.50
2022-12-12T18:42:21.681Z,59.40
2022-12-12T18:44:48.868Z,59.20
2022-12-12T18:47:15.561Z,59.20
2022-12-12T18:49:42.235Z,59.30
2022-12-12T18:52:09.400Z,59.30
2022-12-12T18:54:36.295Z,59.40
2022-12-12T18:57:03.240Z,59.30
2022-12-12T18:59:30.379Z,59.40
2022-12-12T19:01:57.218Z,59.50
2022-12-12T19:04:24.000Z,60.20
2022-12-12T19:06:50.970Z,59.60
2022-12-12T19:09:19.355Z,59.70
2022-12-12T19:11:47.351Z,59.60
2022-12-12T19:14:15.646Z,59.60
2022-12-12T19:16:43.867Z,59.60
2022-12-12T19:19:10.920Z,59.50
2022-12-12T19:21:38.527Z,59.40
2022-12-12T19:24:09.039Z,59.50
2022-12-12T19:26:37.252Z,59.50
2022-12-12T19:29:07.095Z,59.50
2022-12-12T19:31:35.838Z,59.50
2022-12-12T19:34:04.625Z,59.40
2022-12-12T19:36:31.900Z,59.40
2022-12-12T19:39:00.610Z,59.40
2022-12-12T19:41:28.041Z,59.50
2022-12-12T19:43:56.772Z,59.50
2022-12-12T19:46:25.991Z,59.60
2022-12-12T19:49:04.620Z,59.60
2022-12-12T19:51:32.867Z,59.60
2022-12-12T19:54:00.458Z,59.60
2022-12-12T19:56:33.649Z,59.70
2022-12-12T19:59:01.269Z,59.70
2022-12-12T20:01:30.629Z,59.80
2022-12-12T20:04:01.244Z,59.60
2022-12-12T20:06:29.028Z,59.50
2022-12-12T20:08:58.350Z,59.50
2022-12-12T20:11:25.215Z,59.50
2022-12-12T20:13:57.422Z,59.60
2022-12-12T20:16:26.928Z,59.60
2022-12-12T20:18:54.131Z,59.60
2022-12-12T20:21:58.971Z,59.60
2022-12-12T20:24:14.790Z,59.60
2022-12-12T20:26:41.559Z,59.70
2022-12-12T20:29:09.210Z,59.70
2022-12-12T20:31:38.509Z,59.80
2022-12-12T20:34:06.039Z,59.80
2022-12-12T20:36:36.104Z,59.80
2022-12-12T20:39:06.361Z,59.80
2022-12-12T20:41:37.083Z,59.80
2022-12-12T20:44:05.577Z,59.80
2022-12-12T20:46:34.967Z,59.80
2022-12-12T20:49:04.124Z,59.80
2022-12-12T20:54:21.312Z,59.80
2022-12-12T20:56:49.463Z,59.80
2022-12-12T20:59:16.423Z,59.70
2022-12-12T21:01:43.300Z,59.70
2022-12-12T21:04:10.193Z,59.60
2022-12-12T21:06:40.116Z,59.60
2022-12-12T21:09:10.413Z,60.10
2022-12-12T21:11:38.313Z,59.60
2022-12-12T21:14:06.950Z,59.70
2022-12-12T21:16:37.022Z,59.60
2022-12-12T21:19:08.979Z,59.60
2022-12-12T21:21:35.834Z,59.60
2022-12-12T21:24:02.973Z,59.70
2022-12-12T21:26:31.622Z,59.80
2022-12-12T21:29:00.294Z,59.70
2022-12-12T21:31:32.757Z,59.60
2022-12-12T21:34:00.322Z,59.60
2022-12-12T21:36:28.398Z,59.70
2022-12-12T21:38:57.363Z,59.80
2022-12-12T21:41:24.645Z,59.80
2022-12-12T21:43:51.981Z,59.90
2022-12-12T21:46:24.733Z,59.80
2022-12-12T21:49:12.471Z,59.90
2022-12-12T21:51:40.755Z,59.80
2022-12-12T21:54:09.481Z,59.80
2022-12-12T21:56:36.474Z,59.80
2022-12-12T21:59:03.831Z,59.80
2022-12-12T22:01:32.471Z,59.90
2022-12-12T22:04:00.173Z,59.80
2022-12-12T22:06:30.196Z,59.90
2022-12-12T22:08:58.223Z,59.80
2022-12-12T22:11:39.920Z,59.90
2022-12-12T22:14:10.493Z,59.80
2022-12-12T22:16:37.848Z,59.80
2022-12-12T22:19:10.982Z,59.80
2022-12-12T22:21:38.548Z,59.90
2022-12-12T22:24:05.855Z,60.50
2022-12-12T22:26:38.833Z,59.80
2022-12-12T22:29:09.824Z,59.80
2022-12-12T22:31:38.410Z,59.90
2022-12-12T22:34:12.889Z,59.90
2022-12-12T22:36:40.030Z,59.90
2022-12-12T22:39:10.301Z,59.90
2022-12-12T22:41:37.099Z,60.00
2022-12-12T22:44:05.863Z,59.90
2022-12-12T22:46:33.428Z,59.90
2022-12-12T22:49:01.614Z,60.10
2022-12-12T22:51:31.118Z,60.30
2022-12-12T22:54:00.125Z,60.30
2022-12-12T22:56:28.821Z,60.20
2022-12-12T22:58:55.947Z,60.30
2022-12-12T23:01:24.483Z,60.10
2022-12-12T23:03:51.736Z,59.90
2022-12-12T23:06:30.064Z,59.80
2022-12-12T23:09:03.596Z,59.80
2022-12-12T23:11:31.767Z,59.90
2022-12-12T23:14:08.096Z,59.80
2022-12-12T23:16:36.265Z,59.80
2022-12-12T23:19:07.033Z,59.90
2022-12-12T23:21:36.086Z,59.80
2022-12-12T23:24:03.955Z,59.70
2022-12-12T23:26:31.973Z,59.70
2022-12-12T23:28:59.387Z,59.60
2022-12-12T23:31:30.281Z,59.60
2022-12-12T23:33:59.721Z,59.60
2022-12-12T23:36:27.486Z,59.60
2022-12-12T23:38:55.865Z,59.60
2022-12-12T23:41:22.606Z,59.50
2022-12-12T23:43:50.523Z,60.10
2022-12-12T23:46:29.596Z,59.60
2022-12-12T23:48:58.443Z,59.70
2022-12-12T23:51:27.231Z,59.70
2022-12-12T23:53:58.478Z,59.60
2022-12-12T23:56:26.500Z,59.50
2022-12-12T23:58:54.262Z,59.60
